Ocean Majesty — CQSC — position and weather

sailwx.info

Track history (hours):
 
Tides and Currents Weather Stations Pressure Air Temp Water Temp Dewpoint Dewpoint Depression Visibility Wind Speed Wind Dir Waves Ship Positions

Ocean Majesty

Last reported at 2016-Jun-30 02:33 UTC. Time now 2016-Jun-30 03:22 UTC.
Position N 55°05' E 011°02'.

Length 136 m; draft 6.3 m.

Type: Passenger vessel. MMSI: 255717000.

Date/timePositionNaut miles runAvg speedWind from/ knotsBaromVisibWave heightAir tempDewpointWater temp
2016-Jun-30 02:33N 55°05' E 011°02'1614.3
2016-Jun-30 01:26N 55°21' E 011°02'8314.0
2016-Jun-29 19:31N 56°40' E 011°45'1414.5
2016-Jun-29 18:33N 56°54' E 011°46'1615.6
2016-Jun-29 17:33N 57°08' E 011°36'1515.4
2016-Jun-29 16:33N 57°23' E 011°26'1616.0
2016-Jun-29 15:33N 57°35' E 011°08'1615.7
2016-Jun-29 14:33N 57°46' E 010°47'1616.2
2016-Jun-29 13:33N 57°47' E 010°17'9916.4
2016-Jun-29 07:30N 57°42' E 007°10'1515.6
2016-Jun-29 06:33N 57°43' E 006°43'1515.1
2016-Jun-29 05:33N 57°50' E 006°18'1616.0
2016-Jun-29 04:33N 58°01' E 005°56'3316.3
2016-Jun-29 02:31N 58°23' E 005°09'1516.1
2016-Jun-29 01:34N 58°34' E 004°48'319 6.4
2016-Jun-26 23:28N 63°29' E 008°60'1516.0
2016-Jun-26 22:32N 63°37' E 009°28'8514.2
2016-Jun-26 16:33N 64°50' E 011°10'1413.9
2016-Jun-26 15:34N 64°58' E 011°35'1615.9
2016-Jun-26 14:33N 65°12' E 011°53'7815.5
2016-Jun-26 09:33N 66°25' E 012°59'3115.3
2016-Jun-26 07:30N 66°54' E 013°27'1414.7
2016-Jun-26 06:33N 67°04' E 013°53'1414.0
2016-Jun-26 05:33N 67°16' E 014°12'1211.7
2016-Jun-26 04:33N 67°26' E 014°26'1414.2
2016-Jun-26 03:34N 67°39' E 014°12'11114.8
2016-Jun-25 20:04N 69°05' E 017°24'816.1
2016-Jun-25 19:33N 69°08' E 017°45'1111.1
2016-Jun-25 18:33N 69°18' E 017°58'2 0.0
2016-Jun-24 00:30N 69°19' E 018°01'1010.6
2016-Jun-23 23:33N 69°10' E 017°55'169 6.9
2016-Jun-22 23:08N 66°56' E 013°20'711.7
2016-Jun-22 22:32N 66°49' E 013°16'1912.7
2016-Jun-22 21:03N 66°32' E 012°58'612.9
2016-Jun-22 20:33N 66°25' E 012°59'8013.4
2016-Jun-22 14:33N 65°10' E 011°50'1414.2
2016-Jun-22 13:33N 64°58' E 011°33'1312.8
2016-Jun-22 12:33N 64°50' E 011°10'7913.2
2016-Jun-22 06:34N 63°43' E 009°31'1613.5
2016-Jun-22 05:24N 63°31' E 009°09'  
Track history (hours):
 
Tides and Currents Weather Stations Pressure Air Temp Water Temp Dewpoint Dewpoint Depression Visibility Wind Speed Wind Dir Waves Ship Positions

Ocean Majesty

Last reported at 2016-Jun-30 02:33 UTC. Time now 2016-Jun-30 03:22 UTC.
Position N 55°05' E 011°02'.

Length 136 m; draft 6.3 m.

Type: Passenger vessel. MMSI: 255717000.

Date/timePositionNaut miles runAvg speedWind from/ knotsBaromVisibWave heightAir tempDewpointWater temp
2016-Jun-30 02:33N 55°05' E 011°02'1614.3
2016-Jun-30 01:26N 55°21' E 011°02'8314.0
2016-Jun-29 19:31N 56°40' E 011°45'1414.5
2016-Jun-29 18:33N 56°54' E 011°46'1615.6
2016-Jun-29 17:33N 57°08' E 011°36'1515.4
2016-Jun-29 16:33N 57°23' E 011°26'1616.0
2016-Jun-29 15:33N 57°35' E 011°08'1615.7
2016-Jun-29 14:33N 57°46' E 010°47'1616.2
2016-Jun-29 13:33N 57°47' E 010°17'9916.4
2016-Jun-29 07:30N 57°42' E 007°10'1515.6
2016-Jun-29 06:33N 57°43' E 006°43'1515.1
2016-Jun-29 05:33N 57°50' E 006°18'1616.0
2016-Jun-29 04:33N 58°01' E 005°56'3316.3
2016-Jun-29 02:31N 58°23' E 005°09'1516.1
2016-Jun-29 01:34N 58°34' E 004°48'319 6.4
2016-Jun-26 23:28N 63°29' E 008°60'1516.0
2016-Jun-26 22:32N 63°37' E 009°28'8514.2
2016-Jun-26 16:33N 64°50' E 011°10'1413.9
2016-Jun-26 15:34N 64°58' E 011°35'1615.9
2016-Jun-26 14:33N 65°12' E 011°53'7815.5
2016-Jun-26 09:33N 66°25' E 012°59'3115.3
2016-Jun-26 07:30N 66°54' E 013°27'1414.7
2016-Jun-26 06:33N 67°04' E 013°53'1414.0
2016-Jun-26 05:33N 67°16' E 014°12'1211.7
2016-Jun-26 04:33N 67°26' E 014°26'1414.2
2016-Jun-26 03:34N 67°39' E 014°12'11114.8
2016-Jun-25 20:04N 69°05' E 017°24'816.1
2016-Jun-25 19:33N 69°08' E 017°45'1111.1
2016-Jun-25 18:33N 69°18' E 017°58'2 0.0
2016-Jun-24 00:30N 69°19' E 018°01'1010.6
2016-Jun-23 23:33N 69°10' E 017°55'169 6.9
2016-Jun-22 23:08N 66°56' E 013°20'711.7
2016-Jun-22 22:32N 66°49' E 013°16'1912.7
2016-Jun-22 21:03N 66°32' E 012°58'612.9
2016-Jun-22 20:33N 66°25' E 012°59'8013.4
2016-Jun-22 14:33N 65°10' E 011°50'1414.2
2016-Jun-22 13:33N 64°58' E 011°33'1312.8
2016-Jun-22 12:33N 64°50' E 011°10'7913.2
2016-Jun-22 06:34N 63°43' E 009°31'1613.5
2016-Jun-22 05:24N 63°31' E 009°09'  

Dump ship's entire track history